ADDS METAR Data INFO
IDs: Format: Raw Decoded Include TAF

Data at: 0455 UTC 23 May 2017

K46U 230420Z AUTO 10008KT 10SM OVC100 14/00 A3027 RMK A01
K46U 230400Z AUTO 09008KT 050V120 10SM OVC095 15/00 A3027 RMK A01
K46U 230340Z AUTO 09006KT 10SM OVC100 14/01 A3026 RMK A01
K46U 230320Z AUTO 10008KT 10SM OVC100 15/01 A3026 RMK A01
K46U 230300Z AUTO 08004KT 10SM BKN100 15/01 A3025 RMK A01
K46U 230240Z AUTO 07004KT 10SM FEW100 16/00 A3024 RMK A01
K46U 230220Z AUTO 02004KT 10SM CLR 16/01 A3024 RMK A01
K46U 230200Z AUTO 00000KT 10SM CLR 17/01 A3023 RMK A01
K46U 230140Z AUTO 03003KT 10SM CLR 17/M00 A3022 RMK A01
K46U 230120Z AUTO 35004KT 10SM FEW100 17/00 A3021 RMK A01
K46U 230100Z AUTO 36005G15KT 10SM SCT085 BKN110 18/00 A3021 RMK A01
K46U 230040Z AUTO 29008KT 10SM BKN085 BKN120 18/04 A3021 RMK A01
K46U 230020Z AUTO 30007G12KT 10SM FEW080 FEW120 18/04 A3021 RMK A01
K46U 230000Z AUTO 33008G13KT 10SM FEW085 SCT110 18/02 A3021 RMK A01
K46U 222340Z AUTO 31017KT 10SM SCT090 SCT120 18/00 A3021 RMK A01
K46U 222320Z AUTO 31016KT 10SM FEW090 FEW120 20/01 A3020 RMK A01
K46U 222300Z AUTO 32018G24KT 10SM BKN090 19/01 A3021 RMK A01
K46U 222240Z AUTO 30014KT 10SM SCT095 20/01 A3021 RMK A01
K46U 222220Z AUTO 33016G21KT 10SM SCT095 20/02 A3021 RMK A01
K46U 222200Z AUTO 33014G22KT 10SM SCT095 19/01 A3022 RMK A01
K46U 222140Z AUTO 32013G22KT 10SM SCT100 20/01 A3021 RMK A01
K46U 222120Z AUTO 32018KT 10SM FEW100 20/01 A3021 RMK A01
K46U 222100Z AUTO 31015G20KT 280V340 10SM CLR 20/01 A3021 RMK A01
K46U 222040Z AUTO 32013G19KT 10SM CLR 19/00 A3022 RMK A01
K46U 222020Z AUTO 33012KT 300V360 10SM CLR 19/01 A3022 RMK A01
K46U 222000Z AUTO 31014KT 10SM CLR 19/M01 A3022 RMK A01
K46U 221940Z AUTO 33007G16KT 300V360 10SM CLR 19/M01 A3023 RMK A01
K46U 221920Z AUTO 33014KT 10SM CLR 19/M01 A3024 RMK A01
K46U 221900Z AUTO 31009G14KT 10SM CLR 18/M00 A3024 RMK A01
K46U 221840Z AUTO 33010G16KT 10SM CLR 18/M01 A3025 RMK A01
K46U 221820Z AUTO 32012G19KT 10SM CLR 18/M01 A3026 RMK A01
K46U 221800Z AUTO 32009G15KT 10SM CLR 17/M00 A3027 RMK A01
K46U 221740Z AUTO VRB03G12KT 10SM CLR 15/00 A3028 RMK A01
K46U 221720Z AUTO VRB03KT 10SM CLR 15/01 A3028 RMK A01
K46U 221700Z AUTO 24004KT 9SM CLR 14/M00 A3029 RMK A01
K46U 221640Z AUTO 00000KT 10SM CLR 12/01 A3030 RMK A01
K46U 221620Z AUTO 00000KT 10SM CLR 12/02 A3031 RMK A01
K46U 221600Z AUTO 00000KT 10SM CLR 11/02 A3032 RMK A01
K46U 221540Z AUTO 00000KT 10SM CLR 10/02 A3032 RMK A01
K46U 221520Z AUTO 00000KT 10SM CLR 09/02 A3033 RMK A01
K46U 221500Z AUTO 00000KT 10SM CLR 08/01 A3034 RMK A01
K46U 221440Z AUTO 00000KT 10SM CLR 07/00 A3034 RMK A01
K46U 221420Z AUTO 13003KT 10SM CLR 06/00 A3035 RMK A01
K46U 221400Z AUTO 13007KT 10SM CLR 05/M01 A3035 RMK A01
K46U 221340Z AUTO 12005KT 10SM FEW080 04/M01 A3035 RMK A01
K46U 221320Z AUTO 12008KT 10SM CLR 03/M02 A3034 RMK A01
K46U 221300Z AUTO 12007KT 10SM CLR 02/M02 A3034 RMK A01
K46U 221240Z AUTO 12005KT 10SM CLR 02/M01 A3034 RMK A01
K46U 221220Z AUTO 00000KT 10SM CLR 01/M01 A3034 RMK A01
K46U 221200Z AUTO 00000KT 10SM CLR 02/M01 A3033 RMK A01
K46U 221140Z AUTO 00000KT 10SM CLR 02/M01 A3033 RMK A01
K46U 221120Z AUTO 00000KT 10SM CLR 01/M01 A3033 RMK A01
K46U 221100Z AUTO 14004KT 10SM CLR 03/M01 A3033 RMK A01
K46U 221040Z AUTO 23004KT 10SM CLR 02/M00 A3033 RMK A01
K46U 221020Z AUTO 10004KT 10SM CLR 02/M00 A3033 RMK A01
K46U 221000Z AUTO 13006KT 10SM CLR 03/M01 A3032 RMK A01
K46U 220940Z AUTO 00000KT 10SM SCT085 03/M01 A3032 RMK A01
K46U 220920Z AUTO 00000KT 10SM BKN090 03/00 A3032 RMK A01
K46U 220900Z AUTO VRB05KT 10SM BKN090 05/M01 A3032 RMK A01
K46U 220840Z AUTO 00000KT 10SM SCT090 04/M00 A3032 RMK A01
K46U 220820Z AUTO 12008KT 10SM SCT090 05/M01 A3031 RMK A01
K46U 220800Z AUTO VRB03KT 10SM SCT090 05/M01 A3031 RMK A01
K46U 220740Z AUTO 11007KT 10SM CLR 06/M01 A3031 RMK A01
K46U 220720Z AUTO 00000KT 10SM CLR 06/M01 A3031 RMK A01
K46U 220700Z AUTO 11006KT 10SM CLR 06/M01 A3031 RMK A01
K46U 220640Z AUTO 13005KT 10SM CLR 06/M00 A3031 RMK A01
K46U 220620Z AUTO VRB04KT 10SM CLR 06/M00 A3030 RMK A01
K46U 220600Z AUTO 11005KT 10SM CLR 07/M01 A3030 RMK A01
K46U 220540Z AUTO 11007KT 10SM CLR 07/M01 A3030 RMK A01
K46U 220520Z AUTO 11007KT 10SM CLR 08/M01 A3029 RMK A01
K46U 220500Z AUTO 10004KT 10SM CLR 08/M01 A3029 RMK A01
K46U 220440Z AUTO 10004KT 10SM FEW090 09/M01 A3029 RMK A01
K46U 220420Z AUTO 00000KT 10SM BKN090 09/M01 A3028 RMK A01
K46U 220400Z AUTO 3.92000004KT 10SM CLR 10/M01 A3027 RMK A01
K46U 220340Z AUTO 00000KT 10SM CLR 12/M03 A3026 RMK A01
K46U 220320Z AUTO 35004KT 10SM CLR 12/M03 A3025 RMK A01
K46U 220300Z AUTO 03005KT 10SM CLR 12/M03 A3024 RMK A01
K46U 220240Z AUTO 35006KT 10SM CLR 15/M05 A3024 RMK A01
K46U 220220Z AUTO 34008KT 10SM CLR 16/M05 A3023 RMK A01
K46U 220200Z AUTO 34008G13KT 10SM CLR 16/M04 A3022 RMK A01
K46U 220140Z AUTO 34009KT 10SM CLR 17/M04 A3021 RMK A01
K46U 220120Z AUTO 33010G15KT 10SM CLR 17/M05 A3021 RMK A01
K46U 220100Z AUTO 34008KT 10SM CLR 18/M05 A3021 RMK A01
K46U 220040Z AUTO 36008G16KT 330V030 10SM CLR 18/M06 A3021 RMK A01
K46U 220020Z AUTO 34012KT 10SM CLR 18/M05 A3021 RMK A01
K46U 220000Z AUTO 35010G15KT 10SM CLR 18/M07 A3020 RMK A01
K46U 212340Z AUTO 35008G19KT 10SM CLR 18/M06 A3020 RMK A01
K46U 212320Z AUTO 33011G17KT 10SM CLR 19/M05 A3019 RMK A01
K46U 212300Z AUTO 33012G17KT 10SM CLR 19/M05 A3019 RMK A01
K46U 212240Z AUTO 34011G21KT 10SM CLR 19/M04 A3019 RMK A01
K46U 212220Z AUTO 29013G19KT 10SM CLR 19/M01 A3019 RMK A01
K46U 212200Z AUTO 29012G19KT 10SM FEW085 19/M01 A3019 RMK A01
K46U 212140Z AUTO 31014KT 10SM FEW085 19/M02 A3019 RMK A01
K46U 212120Z AUTO 30011KT 10SM CLR 18/M00 A3019 RMK A01
K46U 212100Z AUTO VRB04KT 10SM FEW070 17/02 A3020 RMK A01
K46U 212040Z AUTO 29009G14KT 250V320 10SM SCT065 SCT075 SCT085 18/02 A3020 RMK A01
K46U 212020Z AUTO VRB05G13KT 9SM FEW047 FEW065 FEW095 17/03 A3021 RMK A01
K46U 212000Z AUTO 25007KT 220V300 10SM FEW095 17/03 A3021 RMK A01
K46U 211940Z AUTO 00000G10KT 10SM FEW085 17/02 A3022 RMK A01
K46U 211920Z AUTO VRB05G10KT 10SM FEW070 SCT085 16/02 A3022 RMK A01
K46U 211900Z AUTO VRB04KT 10SM FEW075 SCT085 16/04 A3023 RMK A01
K46U 211840Z AUTO VRB04KT 10SM FEW075 BKN085 16/04 A3023 RMK A01
K46U 211820Z AUTO VRB04KT 10SM FEW080 15/02 A3023 RMK A01
K46U 211800Z AUTO 00000KT 10SM SCT080 14/04 A3024 RMK A01
K46U 211740Z AUTO VRB04KT 10SM FEW075 14/04 A3025 RMK A01
K46U 211720Z AUTO 00000KT 10SM CLR 14/04 A3025 RMK A01
K46U 211700Z AUTO 00000KT 10SM CLR 13/05 A3025 RMK A01


Page loaded:  04:55 UTC  |   09:55 PM Pacific  |   10:55 PM Mountain  |   11:55 PM Central  |   12:55 AM Eastern

 

ADVISORIES

FORECASTS

FORECASTS

OBSERVATIONS

USER TOOLS

ABOUT US